createdAt,value
2023-05-06T00:01:58.471Z,98391.44
2023-05-06T00:04:25.243Z,98392.63
2023-05-06T00:06:51.907Z,98380.81
2023-05-06T00:09:18.642Z,98386.72
2023-05-06T00:11:46.060Z,98395.72
2023-05-06T00:14:12.828Z,98391.03
2023-05-06T00:16:39.561Z,98391.44
2023-05-06T00:32:09.156Z,98385.94
2023-05-06T00:34:35.888Z,98391.03
2023-05-06T00:37:02.527Z,98391.84
2023-05-06T00:39:30.200Z,98384.41
2023-05-06T00:42:02.559Z,98383.63
2023-05-06T00:44:30.242Z,98388.31
2023-05-06T00:46:57.376Z,98387.53
2023-05-06T00:49:24.232Z,98386.75
2023-05-06T00:51:54.139Z,98387.53
2023-05-06T00:54:21.705Z,98386.75
2023-05-06T00:56:48.524Z,98386.38
2023-05-06T00:59:15.748Z,98384.78
2023-05-06T01:01:42.448Z,98383.59
2023-05-06T01:04:09.167Z,98392.66
2023-05-06T01:06:50.047Z,98391.81
2023-05-06T01:09:24.932Z,98389.88
2023-05-06T01:12:06.144Z,98389.84
2023-05-06T01:14:41.867Z,98393.78
2023-05-06T01:17:12.815Z,98384.00
2023-05-06T01:19:46.804Z,98382.44
2023-05-06T01:22:13.760Z,98378.50
2023-05-06T01:24:42.313Z,98374.94
2023-05-06T01:27:10.940Z,98377.31
2023-05-06T01:48:55.270Z,98385.16
2023-05-06T01:51:28.013Z,98383.56
2023-05-06T01:54:01.754Z,98383.94
2023-05-06T01:56:34.443Z,98389.06
2023-05-06T01:59:07.226Z,98389.06
2023-05-06T02:01:39.947Z,98393.78
2023-05-06T02:04:12.713Z,98397.31
2023-05-06T02:06:45.473Z,98382.78
2023-05-06T02:09:18.228Z,98378.06
2023-05-06T02:11:50.990Z,98374.16
2023-05-06T02:14:23.912Z,98389.84
2023-05-06T02:16:56.754Z,98380.44
2023-05-06T02:19:29.534Z,98372.22
2023-05-06T02:22:02.263Z,98375.72
2023-05-06T02:24:35.016Z,98373.00
2023-05-06T02:27:07.774Z,98377.28
2023-05-06T02:29:40.539Z,98381.59
2023-05-06T02:32:13.272Z,98388.28
2023-05-06T02:34:46.102Z,98382.78
2023-05-06T02:37:19.195Z,98378.06
2023-05-06T02:42:29.464Z,98379.66
2023-05-06T02:45:02.761Z,98368.66
2023-05-06T02:47:35.653Z,98366.31
2023-05-06T02:50:08.898Z,98362.38
2023-05-06T02:52:41.720Z,98360.41
2023-05-06T02:55:14.560Z,98364.72
2023-05-06T02:57:47.315Z,98364.34
2023-05-06T03:00:20.532Z,98366.28
2023-05-06T03:02:53.392Z,98366.31
2023-05-06T03:05:26.348Z,98360.81
2023-05-06T03:07:59.083Z,98362.38
2023-05-06T03:13:09.666Z,98366.69
2023-05-06T03:15:36.304Z,98371.78
2023-05-06T03:18:03.152Z,98369.41
2023-05-06T03:20:29.928Z,98367.84
2023-05-06T03:22:56.740Z,98370.97
2023-05-06T03:25:23.434Z,98379.25
2023-05-06T03:27:50.077Z,98365.94
2023-05-06T03:30:16.808Z,98361.56
2023-05-06T03:32:43.827Z,98362.38
2023-05-06T03:35:11.913Z,98362.78
2023-05-06T03:37:38.783Z,98361.59
2023-05-06T03:40:06.370Z,98363.56
2023-05-06T03:42:33.064Z,98365.91
2023-05-06T03:44:59.783Z,98371.00
2023-05-06T03:47:26.469Z,98358.06
2023-05-06T03:49:53.282Z,98349.41
2023-05-06T03:52:20.017Z,98362.31
2023-05-06T03:54:46.732Z,98358.78
2023-05-06T03:57:13.453Z,98348.16
2023-05-06T03:59:40.096Z,98350.13
2023-05-06T04:02:06.889Z,98355.22
2023-05-06T04:04:34.666Z,98349.72
2023-05-06T04:07:02.277Z,98346.59
2023-05-06T04:09:28.966Z,98346.59
2023-05-06T04:11:56.115Z,98350.50
2023-05-06T04:14:22.807Z,98354.84
2023-05-06T04:16:49.569Z,98355.25
2023-05-06T04:19:17.996Z,98354.47
2023-05-06T04:24:23.182Z,98363.84
2023-05-06T04:26:49.936Z,98361.44
2023-05-06T04:29:16.630Z,98368.91
2023-05-06T04:31:43.437Z,98369.69
2023-05-06T04:34:11.415Z,98372.00
2023-05-06T04:39:10.840Z,98381.03
2023-05-06T04:41:38.331Z,98378.31
2023-05-06T04:44:05.189Z,98388.47
2023-05-06T04:46:31.820Z,98379.78
2023-05-06T04:48:58.496Z,98384.13
2023-05-06T04:51:25.273Z,98387.31
2023-05-06T04:53:52.842Z,98389.25
2023-05-06T04:56:19.610Z,98386.50
2023-05-06T04:58:46.246Z,98381.75
2023-05-06T05:01:12.973Z,98392.00
2023-05-06T05:03:39.715Z,98389.66
2023-05-06T05:06:06.741Z,98396.34
2023-05-06T05:08:33.459Z,98397.91
2023-05-06T05:11:00.201Z,98397.94
2023-05-06T05:13:26.958Z,98404.25
2023-05-06T05:15:56.544Z,98402.69
2023-05-06T05:18:23.359Z,98399.16
2023-05-06T05:20:50.170Z,98408.22
2023-05-06T05:23:16.840Z,98404.31
2023-05-06T05:25:43.511Z,98406.72
2023-05-06T05:28:10.171Z,98411.06
2023-05-06T05:30:36.801Z,98412.25
2023-05-06T05:35:35.013Z,98428.38
2023-05-06T05:38:02.086Z,98430.31
2023-05-06T05:40:28.731Z,98426.78
2023-05-06T05:42:55.625Z,98435.03
2023-05-06T05:45:22.289Z,98429.91
2023-05-06T05:47:49.060Z,98434.66
2023-05-06T05:50:15.777Z,98423.63
2023-05-06T05:52:42.373Z,98436.94
2023-05-06T05:55:09.816Z,98431.47
2023-05-06T05:57:37.102Z,98433.88
2023-05-06T06:00:06.010Z,98435.41
2023-05-06T06:02:34.703Z,98435.75
2023-05-06T06:05:01.540Z,98431.75
2023-05-06T06:07:28.343Z,98432.88
2023-05-06T06:09:55.013Z,98432.81
2023-05-06T06:12:21.656Z,98436.72
2023-05-06T06:14:48.738Z,98433.09
2023-05-06T06:19:51.380Z,98431.00
2023-05-06T06:22:18.256Z,98435.41
2023-05-06T06:24:44.973Z,98439.78
2023-05-06T06:27:11.644Z,98440.47
2023-05-06T06:32:09.739Z,98436.56
2023-05-06T06:34:36.845Z,98428.69
2023-05-06T06:37:03.521Z,98429.56
2023-05-06T06:39:30.203Z,98434.22
2023-05-06T06:41:58.484Z,98439.84
2023-05-06T06:44:25.214Z,98442.91
2023-05-06T06:46:51.946Z,98447.22
2023-05-06T06:49:18.578Z,98453.94
2023-05-06T06:54:23.144Z,98458.38
2023-05-06T06:56:50.001Z,98453.28
2023-05-06T06:59:16.705Z,98450.59
2023-05-06T07:04:21.913Z,98454.59
2023-05-06T07:09:21.722Z,98463.28
2023-05-06T07:11:48.378Z,98452.09
2023-05-06T07:14:15.051Z,98456.66
2023-05-06T07:16:42.958Z,98449.00
2023-05-06T07:19:11.242Z,98461.22
2023-05-06T07:21:37.874Z,98456.03
2023-05-06T07:24:04.660Z,98462.69
2023-05-06T07:26:31.328Z,98457.88
2023-05-06T07:28:58.020Z,98459.34
2023-05-06T07:31:24.813Z,98465.78
2023-05-06T07:36:29.630Z,98466.19
2023-05-06T07:38:56.420Z,98473.19
2023-05-06T07:41:23.073Z,98475.28
2023-05-06T07:43:49.701Z,98478.06
2023-05-06T07:46:16.781Z,98482.78
2023-05-06T07:48:43.535Z,98475.78
2023-05-06T07:51:10.215Z,98476.88
2023-05-06T07:53:38.319Z,98470.63
2023-05-06T07:56:05.246Z,98478.03
2023-05-06T07:58:32.250Z,98480.28
2023-05-06T08:00:59.093Z,98471.19
2023-05-06T08:03:26.186Z,98487.59
2023-05-06T08:05:53.848Z,98475.63
2023-05-06T08:08:21.737Z,98473.78
2023-05-06T08:10:48.376Z,98472.53
2023-05-06T08:13:15.273Z,98480.81
2023-05-06T08:15:41.986Z,98483.28
2023-05-06T08:18:18.395Z,98477.66
2023-05-06T08:20:48.819Z,98483.31
2023-05-06T08:23:15.495Z,98485.13
2023-05-06T08:25:42.376Z,98481.47
2023-05-06T08:28:09.030Z,98485.19
2023-05-06T08:30:35.975Z,98475.72
2023-05-06T08:33:02.733Z,98477.84
2023-05-06T08:35:29.437Z,98481.09
2023-05-06T08:37:56.201Z,98484.09
2023-05-06T08:40:24.171Z,98483.03
2023-05-06T08:42:51.119Z,98481.72
2023-05-06T08:45:18.066Z,98475.28
2023-05-06T08:47:45.202Z,98483.75
2023-05-06T08:50:12.092Z,98474.88
2023-05-06T08:52:39.792Z,98472.19
2023-05-06T08:55:07.690Z,98481.97
2023-05-06T08:57:34.883Z,98479.63
2023-05-06T09:00:01.985Z,98475.75
2023-05-06T09:02:29.079Z,98493.63
2023-05-06T09:04:57.078Z,98483.31
2023-05-06T09:07:24.874Z,98484.69
2023-05-06T09:09:51.987Z,98482.72
2023-05-06T09:12:18.737Z,98486.53
2023-05-06T09:14:46.838Z,98479.16
2023-05-06T09:17:24.438Z,98477.88
2023-05-06T09:19:53.515Z,98483.38
2023-05-06T09:22:22.423Z,98482.66
2023-05-06T09:24:56.827Z,98479.47
2023-05-06T09:30:07.461Z,98480.19
2023-05-06T09:32:36.807Z,98479.75
2023-05-06T09:35:06.365Z,98469.03
2023-05-06T09:37:33.083Z,98472.53
2023-05-06T09:40:01.335Z,98472.44
2023-05-06T09:42:31.065Z,98470.56
2023-05-06T09:45:02.222Z,98472.28
2023-05-06T09:47:34.436Z,98469.13
2023-05-06T09:50:03.575Z,98469.72
2023-05-06T09:52:31.377Z,98462.66
2023-05-06T09:54:58.529Z,98463.22
2023-05-06T09:57:26.009Z,98459.38
2023-05-06T09:59:54.358Z,98467.16
2023-05-06T10:02:23.673Z,98459.47
2023-05-06T10:04:51.503Z,98466.31
2023-05-06T10:09:54.748Z,98449.84
2023-05-06T10:12:21.869Z,98457.94
2023-05-06T10:14:48.500Z,98449.31
2023-05-06T10:17:18.314Z,98455.19
2023-05-06T10:19:52.494Z,98447.81
2023-05-06T10:22:31.049Z,98437.56
2023-05-06T10:25:06.528Z,98433.94
2023-05-06T10:27:37.786Z,98437.88
2023-05-06T10:30:05.102Z,98432.16
2023-05-06T10:32:33.169Z,98433.81
2023-05-06T10:35:09.764Z,98423.75
2023-05-06T10:37:38.373Z,98417.88
2023-05-06T10:40:05.985Z,98417.09
2023-05-06T10:42:38.252Z,98416.56
2023-05-06T10:45:06.128Z,98420.00
2023-05-06T10:47:57.974Z,98402.41
2023-05-06T10:50:26.961Z,98411.41
2023-05-06T10:52:59.142Z,98406.56
2023-05-06T10:55:28.270Z,98403.81
2023-05-06T10:57:57.039Z,98393.34
2023-05-06T11:00:24.283Z,98396.53
2023-05-06T11:02:56.400Z,98389.91
2023-05-06T11:05:24.135Z,98388.06
2023-05-06T11:07:52.510Z,98389.47
2023-05-06T11:10:34.255Z,98380.63
2023-05-06T11:13:20.371Z,98389.44
2023-05-06T11:15:47.594Z,98382.22
2023-05-06T11:18:34.952Z,98386.75
2023-05-06T11:21:02.773Z,98384.19
2023-05-06T11:23:50.769Z,98377.63
2023-05-06T11:26:17.564Z,98383.41
2023-05-06T11:28:46.601Z,98375.50
2023-05-06T11:31:14.842Z,98375.78
2023-05-06T11:33:47.919Z,98377.91
2023-05-06T11:36:17.370Z,98378.91
2023-05-06T11:38:52.921Z,98381.47
2023-05-06T11:41:20.208Z,98375.34
2023-05-06T11:43:50.115Z,98376.28
2023-05-06T11:46:19.134Z,98376.94
2023-05-06T11:48:46.283Z,98384.31
2023-05-06T11:51:12.953Z,98373.72
2023-05-06T11:53:39.873Z,98373.19
2023-05-06T11:56:07.280Z,98370.88
2023-05-06T11:58:34.472Z,98364.84
2023-05-06T12:01:04.119Z,98367.38
2023-05-06T12:03:31.984Z,98365.94
2023-05-06T12:05:59.750Z,98369.19
2023-05-06T12:08:33.308Z,98373.94
2023-05-06T12:11:02.377Z,98374.47
2023-05-06T12:13:29.814Z,98365.81
2023-05-06T12:15:59.116Z,98365.25
2023-05-06T12:18:26.781Z,98366.38
2023-05-06T12:20:55.148Z,98366.09
2023-05-06T12:23:22.230Z,98365.69
2023-05-06T12:28:37.401Z,98366.81
2023-05-06T12:31:21.085Z,98357.25
2023-05-06T12:33:51.560Z,98359.84
2023-05-06T12:36:19.716Z,98360.53
2023-05-06T12:38:57.287Z,98351.69
2023-05-06T12:44:36.483Z,98357.34
2023-05-06T12:47:07.615Z,98349.72
2023-05-06T12:50:01.151Z,98352.97
2023-05-06T12:52:30.268Z,98358.91
2023-05-06T12:54:57.969Z,98351.03
2023-05-06T12:57:24.711Z,98349.88
2023-05-06T12:59:51.440Z,98354.59
2023-05-06T13:02:18.875Z,98351.22
2023-05-06T13:04:47.029Z,98343.63
2023-05-06T13:07:13.952Z,98351.72
2023-05-06T13:09:40.699Z,98347.00
2023-05-06T13:12:07.538Z,98342.44
2023-05-06T13:14:34.176Z,98335.84
2023-05-06T13:17:07.002Z,98333.72
2023-05-06T13:19:33.970Z,98335.09
2023-05-06T13:22:01.468Z,98333.66
2023-05-06T13:24:28.684Z,98330.66
2023-05-06T13:26:57.470Z,98318.56
2023-05-06T13:29:24.754Z,98318.16
2023-05-06T13:31:51.825Z,98312.94
2023-05-06T13:34:18.879Z,98307.97
2023-05-06T13:36:46.919Z,98306.44
2023-05-06T13:39:13.624Z,98295.38
2023-05-06T13:41:40.297Z,98297.88
2023-05-06T13:44:06.921Z,98296.34
2023-05-06T13:46:33.798Z,98289.16
2023-05-06T13:49:00.718Z,98286.19
2023-05-06T13:51:30.172Z,98284.50
2023-05-06T13:53:56.884Z,98280.88
2023-05-06T13:56:23.563Z,98285.56
2023-05-06T13:58:50.452Z,98283.69
2023-05-06T14:01:17.131Z,98283.25
2023-05-06T14:03:43.830Z,98277.69
2023-05-06T14:06:10.562Z,98274.16
2023-05-06T14:08:37.444Z,98266.41
2023-05-06T14:11:04.107Z,98267.97
2023-05-06T14:13:32.042Z,98266.88
2023-05-06T14:15:59.632Z,98263.72
2023-05-06T14:18:27.309Z,98269.50
2023-05-06T14:20:54.576Z,98270.97
2023-05-06T14:23:21.329Z,98262.78
2023-05-06T14:25:48.404Z,98257.81
2023-05-06T14:28:15.896Z,98263.94
2023-05-06T14:30:43.126Z,98251.63
2023-05-06T14:33:10.232Z,98251.78
2023-05-06T14:35:40.903Z,98254.31
2023-05-06T14:38:07.691Z,98251.91
2023-05-06T14:40:36.170Z,98253.06
2023-05-06T14:43:03.441Z,98246.31
2023-05-06T14:45:30.140Z,98247.22
2023-05-06T14:47:57.043Z,98241.91
2023-05-06T14:52:54.977Z,98241.78
2023-05-06T14:55:21.695Z,98236.66
2023-05-06T14:57:48.610Z,98237.63
2023-05-06T15:00:17.045Z,98238.13
2023-05-06T15:02:43.901Z,98233.63
2023-05-06T15:05:12.485Z,98230.06
2023-05-06T15:07:39.393Z,98232.59
2023-05-06T15:10:06.350Z,98230.03
2023-05-06T15:12:33.692Z,98235.44
2023-05-06T15:15:00.681Z,98222.38
2023-05-06T15:17:27.437Z,98227.66
2023-05-06T15:19:54.304Z,98224.25
2023-05-06T15:22:20.952Z,98234.38
2023-05-06T15:24:47.602Z,98222.47
2023-05-06T15:27:15.338Z,98226.50
2023-05-06T15:29:42.002Z,98229.53
2023-05-06T15:32:08.808Z,98224.38
2023-05-06T15:34:36.021Z,98235.50
2023-05-06T15:37:02.705Z,98234.75
2023-05-06T15:39:29.374Z,98238.97
2023-05-06T15:41:59.219Z,98235.63
2023-05-06T15:44:27.194Z,98228.03
2023-05-06T15:46:53.979Z,98227.50
2023-05-06T15:49:48.931Z,98226.34
2023-05-06T15:52:07.445Z,98225.16
2023-05-06T15:54:37.620Z,98221.81
2023-05-06T15:57:07.523Z,98227.38
2023-05-06T15:59:34.378Z,98224.00
2023-05-06T16:02:26.225Z,98223.94
2023-05-06T16:04:47.879Z,98219.47
2023-05-06T16:07:15.384Z,98221.34
2023-05-06T16:09:42.954Z,98214.50
2023-05-06T16:12:10.259Z,98221.09
2023-05-06T16:14:37.023Z,98223.47
2023-05-06T16:17:03.765Z,98219.34
2023-05-06T16:19:35.119Z,98218.72
2023-05-06T16:22:02.647Z,98210.81
2023-05-06T16:24:29.368Z,98206.56
2023-05-06T16:26:56.435Z,98210.13
2023-05-06T16:29:23.147Z,98206.47
2023-05-06T16:31:49.958Z,98215.47
2023-05-06T16:34:16.731Z,98210.47
2023-05-06T16:36:43.812Z,98208.03
2023-05-06T16:39:10.464Z,98209.59
2023-05-06T16:41:37.087Z,98207.03
2023-05-06T16:44:03.787Z,98212.47
2023-05-06T16:46:30.561Z,98203.25
2023-05-06T16:48:57.256Z,98205.22
2023-05-06T16:51:24.419Z,98194.81
2023-05-06T16:53:51.141Z,98205.34
2023-05-06T16:56:18.130Z,98204.19
2023-05-06T16:58:44.835Z,98200.69
2023-05-06T17:01:11.997Z,98198.88
2023-05-06T17:03:38.818Z,98199.09
2023-05-06T17:06:05.849Z,98195.97
2023-05-06T17:08:36.015Z,98192.75
2023-05-06T17:11:06.430Z,98187.75
2023-05-06T17:13:33.455Z,98188.19
2023-05-06T17:16:00.270Z,98185.84
2023-05-06T17:18:26.984Z,98186.72
2023-05-06T17:20:56.469Z,98183.50
2023-05-06T17:23:24.320Z,98180.44
2023-05-06T17:25:51.675Z,98177.91
2023-05-06T17:28:18.977Z,98179.78
2023-05-06T17:30:46.282Z,98176.09
2023-05-06T17:33:13.063Z,98181.63
2023-05-06T17:35:39.780Z,98173.03
2023-05-06T17:38:06.614Z,98178.31
2023-05-06T17:40:33.482Z,98170.78
2023-05-06T17:43:00.306Z,98179.28
2023-05-06T17:45:28.755Z,98172.31
2023-05-06T17:47:56.664Z,98168.41
2023-05-06T17:50:23.556Z,98159.69
2023-05-06T17:52:52.461Z,98164.13
2023-05-06T17:55:21.872Z,98170.97
2023-05-06T17:57:48.968Z,98174.16
2023-05-06T18:00:16.838Z,98169.06
2023-05-06T18:02:44.092Z,98171.81
2023-05-06T18:05:11.684Z,98168.56
2023-05-06T18:07:38.704Z,98166.72
2023-05-06T18:10:06.456Z,98173.03
2023-05-06T18:12:33.121Z,98172.09
2023-05-06T18:15:00.892Z,98173.84
2023-05-06T18:17:27.553Z,98181.75
2023-05-06T18:19:54.272Z,98170.91
2023-05-06T18:22:20.903Z,98176.53
2023-05-06T18:24:47.589Z,98182.25
2023-05-06T18:27:14.294Z,98180.41
2023-05-06T18:29:41.729Z,98190.16
2023-05-06T18:32:08.583Z,98187.22
2023-05-06T18:34:35.591Z,98190.50
2023-05-06T18:37:02.370Z,98184.66
2023-05-06T18:39:28.949Z,98200.31
2023-05-06T18:41:55.594Z,98195.13
2023-05-06T18:44:22.230Z,98203.38
2023-05-06T18:46:48.858Z,98205.44
2023-05-06T18:49:15.525Z,98201.81
2023-05-06T18:51:42.128Z,98205.44
2023-05-06T18:54:08.784Z,98213.38
2023-05-06T18:56:36.925Z,98220.59
2023-05-06T18:59:03.700Z,98219.22
2023-05-06T19:01:30.372Z,98223.06
2023-05-06T19:03:57.051Z,98223.72
2023-05-06T19:06:23.853Z,98221.47
2023-05-06T19:08:50.687Z,98231.91
2023-05-06T19:11:21.359Z,98228.06
2023-05-06T19:13:48.002Z,98223.25
2023-05-06T19:16:14.744Z,98227.44
2023-05-06T19:18:41.871Z,98232.94
2023-05-06T19:23:43.744Z,98232.75
2023-05-06T19:26:13.769Z,98232.03
2023-05-06T19:28:40.914Z,98233.75
2023-05-06T19:31:09.620Z,98236.72
2023-05-06T19:33:39.984Z,98243.03
2023-05-06T19:36:07.120Z,98245.22
2023-05-06T19:38:34.380Z,98236.84
2023-05-06T19:41:01.527Z,98240.88
2023-05-06T19:43:28.412Z,98240.22
2023-05-06T19:45:55.148Z,98241.84
2023-05-06T19:48:23.849Z,98245.59
2023-05-06T19:50:51.726Z,98241.56
2023-05-06T19:53:18.554Z,98240.50
2023-05-06T19:55:45.194Z,98239.94
2023-05-06T19:58:14.253Z,98239.09
2023-05-06T20:00:40.998Z,98242.31
2023-05-06T20:05:42.216Z,98247.34
2023-05-06T20:08:11.677Z,98243.53
2023-05-06T20:10:38.942Z,98241.47
2023-05-06T20:13:06.672Z,98237.75
2023-05-06T20:15:33.584Z,98240.03
2023-05-06T20:18:00.249Z,98243.34
2023-05-06T20:20:34.494Z,98239.69
2023-05-06T20:23:04.208Z,98243.59
2023-05-06T20:28:03.823Z,98247.66
2023-05-06T20:30:30.617Z,98242.63
2023-05-06T20:32:57.460Z,98243.81
2023-05-06T20:35:24.363Z,98241.78
2023-05-06T20:37:50.982Z,98239.22
2023-05-06T20:40:17.706Z,98238.88
2023-05-06T20:42:44.379Z,98246.41
2023-05-06T20:45:11.435Z,98238.44
2023-05-06T20:47:38.353Z,98236.28
2023-05-06T20:50:05.476Z,98225.56
2023-05-06T20:52:34.232Z,98237.41
2023-05-06T20:55:01.256Z,98236.75
2023-05-06T20:57:28.643Z,98239.06
2023-05-06T20:59:56.309Z,98236.03
2023-05-06T21:02:23.121Z,98247.16
2023-05-06T21:04:49.913Z,98238.19
2023-05-06T21:07:16.593Z,98238.66
2023-05-06T21:09:43.288Z,98238.78
2023-05-06T21:12:09.965Z,98241.94
2023-05-06T21:14:36.581Z,98234.75
2023-05-06T21:17:03.362Z,98233.22
2023-05-06T21:19:30.160Z,98239.88
2023-05-06T21:21:56.930Z,98230.25
2023-05-06T21:24:23.567Z,98230.69
2023-05-06T21:26:51.449Z,98241.34
2023-05-06T21:29:18.078Z,98235.47
2023-05-06T21:31:44.749Z,98236.84
2023-05-06T21:34:11.414Z,98233.66
2023-05-06T21:36:38.093Z,98238.72
2023-05-06T21:39:09.957Z,98241.88
2023-05-06T21:41:36.674Z,98228.63
2023-05-06T21:44:05.650Z,98232.72
2023-05-06T21:46:33.039Z,98222.56
2023-05-06T21:49:00.339Z,98221.25
2023-05-06T21:51:28.418Z,98222.88
2023-05-06T21:53:55.143Z,98217.97
2023-05-06T21:56:22.286Z,98222.31
2023-05-06T21:58:49.123Z,98232.84
2023-05-06T22:01:16.086Z,98223.84
2023-05-06T22:03:43.728Z,98228.72
2023-05-06T22:06:10.508Z,98225.88
2023-05-06T22:08:37.185Z,98220.47
2023-05-06T22:11:03.854Z,98226.75
2023-05-06T22:13:31.379Z,98222.13
2023-05-06T22:15:58.148Z,98226.13
2023-05-06T22:18:25.937Z,98222.13
2023-05-06T22:20:56.654Z,98224.94
2023-05-06T22:23:24.556Z,98228.91
2023-05-06T22:25:54.405Z,98227.31
2023-05-06T22:33:30.330Z,98222.78
2023-05-06T22:35:57.064Z,98218.88
2023-05-06T22:38:23.702Z,98211.44
2023-05-06T22:40:50.573Z,98221.69
2023-05-06T22:43:17.222Z,98226.41
2023-05-06T22:45:43.870Z,98226.41
2023-05-06T22:48:11.065Z,98221.38
2023-05-06T22:50:38.275Z,98222.97
2023-05-06T22:53:14.428Z,98224.53
2023-05-06T22:55:42.316Z,98224.53
2023-05-06T22:58:09.044Z,98220.59
2023-05-06T23:00:35.704Z,98218.59
2023-05-06T23:03:03.085Z,98215.06
2023-05-06T23:13:05.889Z,98215.44
2023-05-06T23:15:32.860Z,98211.47
2023-05-06T23:17:59.575Z,98213.00
2023-05-06T23:20:26.342Z,98212.63
2023-05-06T23:22:53.181Z,98214.56
2023-05-06T23:25:20.300Z,98197.22
2023-05-06T23:27:47.082Z,98212.53
2023-05-06T23:30:13.946Z,98214.13
2023-05-06T23:32:40.702Z,98209.88
2023-05-06T23:35:07.910Z,98220.84
2023-05-06T23:50:30.937Z,98221.38
2023-05-06T23:52:57.577Z,98230.41
2023-05-06T23:55:26.519Z,98229.22
2023-05-06T23:57:53.221Z,98226.44
